EZY275 EGKK-EGCC
Flight info
| Callsign | EZY275 |
|---|---|
| Flight time | N/A |
| Altitude | 22000 |
| Route | LAM N57 WELIN DCT TIMPO DCT ELVOS DCT TNT |
| Aircraft | A320/M-SDE3FGHIRWY/LB1 |
Departure
| Time | 2026-05-05 17:28 |
|---|---|
| Airport | London Gatwick Airport (EGKK) |
Arrival
| Time | N/A |
|---|---|
| Airport | Manchester Airport (EGCC) |
| Time | Latitude | Longitude | Altitude | Speed | Heading |
|---|---|---|---|---|---|
| 2026-05-05 16:49 | 51.16185 | -0.18047 | 205 ft | 0 kts | 78° |
| 2026-05-05 17:03 | 51.16183 | -0.18059 | 205 ft | 0 kts | 77° |
| 2026-05-05 17:10 | 51.16180 | -0.18082 | 215 ft | 4 kts | 77° |
| 2026-05-05 17:10 | 51.16174 | -0.18123 | 211 ft | 4 kts | 77° |
| 2026-05-05 17:11 | 51.16169 | -0.18158 | 211 ft | 4 kts | 87° |
| 2026-05-05 17:11 | 51.16175 | -0.18192 | 213 ft | 4 kts | 146° |
| 2026-05-05 17:11 | 51.16199 | -0.18207 | 213 ft | 3 kts | 168° |
| 2026-05-05 17:11 | 51.16213 | -0.18212 | 205 ft | 0 kts | 167° |
| 2026-05-05 17:17 | 51.16210 | -0.18211 | 205 ft | 3 kts | 167° |
| 2026-05-05 17:17 | 51.16165 | -0.18195 | 207 ft | 7 kts | 167° |
| 2026-05-05 17:17 | 51.16125 | -0.18181 | 213 ft | 5 kts | 167° |
| 2026-05-05 17:17 | 51.16094 | -0.18170 | 206 ft | 4 kts | 167° |
| 2026-05-05 17:18 | 51.16071 | -0.18162 | 215 ft | 3 kts | 167° |
| 2026-05-05 17:18 | 51.16034 | -0.18149 | 207 ft | 6 kts | 167° |
| 2026-05-05 17:18 | 51.15997 | -0.18136 | 209 ft | 5 kts | 167° |
| 2026-05-05 17:18 | 51.15934 | -0.18114 | 213 ft | 13 kts | 167° |
| 2026-05-05 17:19 | 51.15852 | -0.18086 | 209 ft | 11 kts | 167° |
| 2026-05-05 17:19 | 51.15778 | -0.18060 | 206 ft | 12 kts | 167° |
| 2026-05-05 17:19 | 51.15694 | -0.18070 | 211 ft | 13 kts | 227° |
| 2026-05-05 17:19 | 51.15653 | -0.18211 | 205 ft | 15 kts | 261° |
| 2026-05-05 17:20 | 51.15601 | -0.18343 | 208 ft | 15 kts | 189° |
| 2026-05-05 17:20 | 51.15501 | -0.18319 | 213 ft | 14 kts | 164° |
| 2026-05-05 17:20 | 51.15405 | -0.18285 | 205 ft | 14 kts | 168° |
| 2026-05-05 17:20 | 51.15315 | -0.18255 | 207 ft | 13 kts | 168° |
| 2026-05-05 17:21 | 51.15235 | -0.18231 | 205 ft | 11 kts | 177° |
| 2026-05-05 17:21 | 51.15189 | -0.18305 | 205 ft | 15 kts | 252° |
| 2026-05-05 17:21 | 51.15164 | -0.18495 | 209 ft | 19 kts | 258° |
| 2026-05-05 17:22 | 51.15103 | -0.18929 | 209 ft | 21 kts | 257° |
| 2026-05-05 17:22 | 51.15072 | -0.19168 | 205 ft | 23 kts | 259° |
| 2026-05-05 17:22 | 51.15043 | -0.19371 | 214 ft | 19 kts | 258° |
| 2026-05-05 17:22 | 51.15016 | -0.19582 | 205 ft | 20 kts | 257° |
| 2026-05-05 17:23 | 51.14984 | -0.19807 | 209 ft | 22 kts | 257° |
| 2026-05-05 17:23 | 51.14954 | -0.20022 | 212 ft | 20 kts | 257° |
| 2026-05-05 17:23 | 51.14923 | -0.20243 | 208 ft | 21 kts | 257° |
| 2026-05-05 17:23 | 51.14895 | -0.20438 | 211 ft | 0 kts | 257° |
| 2026-05-05 17:24 | 51.14883 | -0.20536 | 209 ft | 19 kts | 261° |
| 2026-05-05 17:24 | 51.14855 | -0.20755 | 210 ft | 21 kts | 257° |
| 2026-05-05 17:24 | 51.14822 | -0.20988 | 208 ft | 22 kts | 257° |
| 2026-05-05 17:25 | 51.14787 | -0.21236 | 205 ft | 24 kts | 257° |
| 2026-05-05 17:25 | 51.14772 | -0.21330 | 205 ft | 8 kts | 249° |
| 2026-05-05 17:25 | 51.14733 | -0.21397 | 207 ft | 5 kts | 203° |
| 2026-05-05 17:25 | 51.14732 | -0.21398 | 207 ft | 0 kts | 200° |
| 2026-05-05 17:26 | 51.14730 | -0.21399 | 207 ft | 3 kts | 198° |
| 2026-05-05 17:26 | 51.14658 | -0.21369 | 207 ft | 13 kts | 139° |
| 2026-05-05 17:26 | 51.14620 | -0.21334 | 212 ft | 0 kts | 162° |
| 2026-05-05 17:27 | 51.14560 | -0.21298 | 207 ft | 25 kts | 148° |
| 2026-05-05 17:27 | 51.14537 | -0.21041 | 207 ft | 25 kts | 76° |
| 2026-05-05 17:27 | 51.14590 | -0.20670 | 212 ft | 61 kts | 77° |
| 2026-05-05 17:28 | 51.14733 | -0.19624 | 209 ft | 126 kts | 77° |
| 2026-05-05 17:28 | 51.14956 | -0.18025 | 223 ft | 172 kts | 77° |
| 2026-05-05 17:28 | 51.15231 | -0.16135 | 743 ft | 176 kts | 77° |
| 2026-05-05 17:28 | 51.15504 | -0.14155 | 1258 ft | 194 kts | 77° |
| 2026-05-05 17:29 | 51.15805 | -0.11928 | 1677 ft | 217 kts | 78° |
| 2026-05-05 17:29 | 51.16137 | -0.09468 | 2151 ft | 235 kts | 78° |
| 2026-05-05 17:29 | 51.16585 | -0.06965 | 2857 ft | 241 kts | 64° |
| 2026-05-05 17:29 | 51.17523 | -0.04748 | 3626 ft | 243 kts | 52° |
| 2026-05-05 17:30 | 51.18587 | -0.02557 | 4219 ft | 259 kts | 52° |
| 2026-05-05 17:30 | 51.19714 | -0.00235 | 4834 ft | 270 kts | 52° |
| 2026-05-05 17:30 | 51.20867 | 0.02145 | 4981 ft | 271 kts | 52° |
| 2026-05-05 17:30 | 51.22018 | 0.04521 | 5012 ft | 271 kts | 52° |
| 2026-05-05 17:31 | 51.23169 | 0.06899 | 5016 ft | 271 kts | 52° |
| 2026-05-05 17:31 | 51.24295 | 0.09294 | 5013 ft | 271 kts | 57° |
| 2026-05-05 17:31 | 51.25098 | 0.12015 | 5015 ft | 271 kts | 73° |
| 2026-05-05 17:31 | 51.25488 | 0.14914 | 5017 ft | 271 kts | 79° |
| 2026-05-05 17:32 | 51.25832 | 0.17870 | 5017 ft | 271 kts | 79° |
| 2026-05-05 17:32 | 51.26182 | 0.20831 | 5017 ft | 271 kts | 79° |
| 2026-05-05 17:32 | 51.26531 | 0.23788 | 5017 ft | 271 kts | 79° |
| 2026-05-05 17:32 | 51.26882 | 0.26747 | 5015 ft | 271 kts | 79° |
| 2026-05-05 17:33 | 51.27235 | 0.29705 | 5016 ft | 271 kts | 79° |
| 2026-05-05 17:33 | 51.27795 | 0.32562 | 5015 ft | 270 kts | 60° |
| 2026-05-05 17:33 | 51.29018 | 0.34802 | 5017 ft | 270 kts | 35° |
| 2026-05-05 17:33 | 51.30717 | 0.36004 | 5053 ft | 271 kts | 8° |
| 2026-05-05 17:34 | 51.32580 | 0.35924 | 5612 ft | 273 kts | 345° |
| 2026-05-05 17:34 | 51.34355 | 0.34894 | 6104 ft | 272 kts | 338° |
| 2026-05-05 17:34 | 51.36187 | 0.34095 | 6616 ft | 275 kts | 349° |
| 2026-05-05 17:34 | 51.38083 | 0.33621 | 7119 ft | 276 kts | 351° |
| 2026-05-05 17:35 | 51.39990 | 0.33181 | 7621 ft | 278 kts | 351° |
| 2026-05-05 17:35 | 51.41911 | 0.32740 | 8124 ft | 280 kts | 351° |
| 2026-05-05 17:35 | 51.43767 | 0.32314 | 8606 ft | 282 kts | 351° |
| 2026-05-05 17:35 | 51.45716 | 0.31866 | 9114 ft | 284 kts | 351° |
| 2026-05-05 17:36 | 51.47680 | 0.31413 | 9606 ft | 286 kts | 351° |
| 2026-05-05 17:36 | 51.49660 | 0.30957 | 10115 ft | 289 kts | 351° |
| 2026-05-05 17:36 | 51.51697 | 0.30486 | 10623 ft | 303 kts | 351° |
| 2026-05-05 17:36 | 51.53830 | 0.29991 | 11130 ft | 316 kts | 351° |
| 2026-05-05 17:37 | 51.56055 | 0.29474 | 11637 ft | 329 kts | 351° |
| 2026-05-05 17:37 | 51.58357 | 0.28937 | 12144 ft | 340 kts | 351° |
| 2026-05-05 17:37 | 51.60733 | 0.28382 | 12649 ft | 350 kts | 351° |
| 2026-05-05 17:37 | 51.63165 | 0.27812 | 12945 ft | 367 kts | 351° |
| 2026-05-05 17:38 | 51.65720 | 0.27212 | 13372 ft | 375 kts | 351° |
| 2026-05-05 17:38 | 51.68299 | 0.26411 | 13873 ft | 381 kts | 341° |
| 2026-05-05 17:38 | 51.70667 | 0.24489 | 14377 ft | 384 kts | 323° |
| 2026-05-05 17:38 | 51.72564 | 0.21463 | 14880 ft | 387 kts | 309° |
| 2026-05-05 17:39 | 51.74268 | 0.18077 | 15383 ft | 389 kts | 308° |
| 2026-05-05 17:39 | 51.75968 | 0.14657 | 15881 ft | 392 kts | 308° |
| 2026-05-05 17:39 | 51.77627 | 0.11301 | 16377 ft | 395 kts | 308° |
| 2026-05-05 17:39 | 51.79370 | 0.07767 | 16887 ft | 398 kts | 308° |
| 2026-05-05 17:40 | 51.81102 | 0.04263 | 17385 ft | 401 kts | 308° |
| 2026-05-05 17:40 | 51.82850 | 0.00732 | 17889 ft | 404 kts | 308° |
| 2026-05-05 17:40 | 51.84609 | -0.02819 | 18389 ft | 407 kts | 308° |
| 2026-05-05 17:40 | 51.86385 | -0.06407 | 18846 ft | 410 kts | 308° |
| 2026-05-05 17:41 | 51.88175 | -0.10024 | 18983 ft | 412 kts | 308° |
| 2026-05-05 17:41 | 51.89962 | -0.13644 | 19010 ft | 412 kts | 308° |
| 2026-05-05 17:41 | 51.91748 | -0.17275 | 19009 ft | 412 kts | 308° |
| 2026-05-05 17:41 | 51.93504 | -0.20853 | 19008 ft | 412 kts | 308° |
| 2026-05-05 17:42 | 51.95288 | -0.24493 | 19009 ft | 412 kts | 308° |
| 2026-05-05 17:42 | 51.97069 | -0.28129 | 19009 ft | 412 kts | 308° |
| 2026-05-05 17:42 | 51.98847 | -0.31760 | 19008 ft | 411 kts | 308° |
| 2026-05-05 17:42 | 52.00630 | -0.35398 | 19009 ft | 411 kts | 308° |
| 2026-05-05 17:43 | 52.02409 | -0.39034 | 19009 ft | 411 kts | 308° |
| 2026-05-05 17:43 | 52.04186 | -0.42679 | 19009 ft | 411 kts | 308° |
| 2026-05-05 17:43 | 52.05958 | -0.46325 | 19008 ft | 412 kts | 308° |
| 2026-05-05 17:43 | 52.07732 | -0.49980 | 19009 ft | 411 kts | 308° |
| 2026-05-05 17:44 | 52.09479 | -0.53580 | 19009 ft | 411 kts | 308° |
| 2026-05-05 17:44 | 52.11249 | -0.57234 | 19009 ft | 411 kts | 308° |
| 2026-05-05 17:44 | 52.13022 | -0.60898 | 19009 ft | 411 kts | 308° |
| 2026-05-05 17:44 | 52.14731 | -0.64433 | 19009 ft | 411 kts | 308° |
| 2026-05-05 17:45 | 52.16500 | -0.68093 | 19009 ft | 411 kts | 308° |
| 2026-05-05 17:45 | 52.18271 | -0.71758 | 19009 ft | 411 kts | 308° |
| 2026-05-05 17:45 | 52.20038 | -0.75428 | 19009 ft | 411 kts | 308° |
| 2026-05-05 17:45 | 52.21800 | -0.79101 | 19009 ft | 411 kts | 308° |
| 2026-05-05 17:46 | 52.23595 | -0.82731 | 19008 ft | 411 kts | 312° |
| 2026-05-05 17:46 | 52.25681 | -0.85925 | 19008 ft | 412 kts | 322° |
| 2026-05-05 17:46 | 52.28055 | -0.88525 | 19010 ft | 412 kts | 329° |
| 2026-05-05 17:46 | 52.30514 | -0.90946 | 19008 ft | 412 kts | 328° |
| 2026-05-05 17:47 | 52.32962 | -0.93372 | 19009 ft | 412 kts | 328° |
| 2026-05-05 17:47 | 52.35374 | -0.95777 | 19009 ft | 412 kts | 328° |
| 2026-05-05 17:47 | 52.37822 | -0.98226 | 19009 ft | 412 kts | 328° |
| 2026-05-05 17:47 | 52.40266 | -1.00679 | 19009 ft | 412 kts | 328° |
| 2026-05-05 17:48 | 52.42708 | -1.03138 | 19009 ft | 412 kts | 328° |
| 2026-05-05 17:48 | 52.45141 | -1.05589 | 19008 ft | 412 kts | 328° |
| 2026-05-05 17:48 | 52.47545 | -1.08008 | 19009 ft | 412 kts | 328° |
| 2026-05-05 17:48 | 52.49989 | -1.10460 | 19009 ft | 412 kts | 328° |
| 2026-05-05 17:49 | 52.52438 | -1.12916 | 19009 ft | 412 kts | 328° |
| 2026-05-05 17:49 | 52.54881 | -1.15367 | 19009 ft | 412 kts | 328° |
| 2026-05-05 17:49 | 52.57292 | -1.17791 | 19009 ft | 412 kts | 328° |
| 2026-05-05 17:49 | 52.59736 | -1.20253 | 19009 ft | 412 kts | 328° |
| 2026-05-05 17:50 | 52.62178 | -1.22716 | 19009 ft | 412 kts | 328° |
| 2026-05-05 17:50 | 52.64617 | -1.25184 | 19009 ft | 412 kts | 328° |
| 2026-05-05 17:50 | 52.67057 | -1.27662 | 19009 ft | 412 kts | 328° |
| 2026-05-05 17:50 | 52.69496 | -1.30144 | 19009 ft | 412 kts | 328° |
| 2026-05-05 17:51 | 52.71935 | -1.32626 | 19008 ft | 412 kts | 328° |
| 2026-05-05 17:51 | 52.74377 | -1.35114 | 19009 ft | 412 kts | 328° |
| 2026-05-05 17:51 | 52.76782 | -1.37563 | 19009 ft | 412 kts | 328° |
| 2026-05-05 17:51 | 52.79221 | -1.40050 | 19009 ft | 412 kts | 328° |
| 2026-05-05 17:52 | 52.81659 | -1.42541 | 19009 ft | 412 kts | 328° |
| 2026-05-05 17:52 | 52.84093 | -1.45030 | 19009 ft | 412 kts | 328° |
| 2026-05-05 17:52 | 52.86526 | -1.47525 | 19009 ft | 412 kts | 328° |
| 2026-05-05 17:52 | 52.88957 | -1.50022 | 19009 ft | 411 kts | 328° |
| 2026-05-05 17:53 | 52.91393 | -1.52527 | 19009 ft | 412 kts | 328° |
| 2026-05-05 17:53 | 52.93826 | -1.55032 | 19009 ft | 412 kts | 328° |
| 2026-05-05 17:53 | 52.96256 | -1.57537 | 19009 ft | 412 kts | 328° |
| 2026-05-05 17:53 | 52.98688 | -1.60045 | 19009 ft | 412 kts | 328° |
| 2026-05-05 17:54 | 53.01150 | -1.62586 | 18755 ft | 427 kts | 328° |
| 2026-05-05 17:54 | 53.03533 | -1.65484 | 18251 ft | 429 kts | 317° |
| 2026-05-05 17:54 | 53.05460 | -1.69188 | 17750 ft | 420 kts | 303° |
| 2026-05-05 17:54 | 53.06809 | -1.73430 | 17252 ft | 412 kts | 291° |
| 2026-05-05 17:55 | 53.07782 | -1.77879 | 16753 ft | 406 kts | 289° |
| 2026-05-05 17:55 | 53.08736 | -1.82273 | 16252 ft | 401 kts | 290° |
| 2026-05-05 17:55 | 53.09681 | -1.86605 | 15751 ft | 396 kts | 290° |
| 2026-05-05 17:55 | 53.10617 | -1.90888 | 15251 ft | 392 kts | 290° |
| 2026-05-05 17:56 | 53.11544 | -1.95122 | 14749 ft | 387 kts | 290° |
| 2026-05-05 17:56 | 53.12459 | -1.99306 | 14251 ft | 383 kts | 290° |
| 2026-05-05 17:56 | 53.13348 | -2.03395 | 13755 ft | 378 kts | 290° |
| 2026-05-05 17:56 | 53.14231 | -2.07493 | 13256 ft | 374 kts | 289° |
| 2026-05-05 17:57 | 53.15101 | -2.11548 | 12746 ft | 370 kts | 289° |
| 2026-05-05 17:57 | 53.15960 | -2.15560 | 12247 ft | 365 kts | 289° |
| 2026-05-05 17:57 | 53.16806 | -2.19520 | 11753 ft | 361 kts | 289° |
| 2026-05-05 17:57 | 53.17642 | -2.23434 | 11253 ft | 356 kts | 289° |
| 2026-05-05 17:58 | 53.18467 | -2.27287 | 10928 ft | 347 kts | 289° |
| 2026-05-05 17:58 | 53.19260 | -2.30985 | 10812 ft | 332 kts | 289° |
| 2026-05-05 17:58 | 53.20030 | -2.34595 | 10196 ft | 333 kts | 289° |
| 2026-05-05 17:58 | 53.20802 | -2.38234 | 9305 ft | 330 kts | 289° |
| 2026-05-05 17:59 | 53.21552 | -2.41776 | 8439 ft | 326 kts | 289° |
| 2026-05-05 17:59 | 53.22379 | -2.45255 | 7580 ft | 320 kts | 300° |
| 2026-05-05 17:59 | 53.23896 | -2.47876 | 6730 ft | 315 kts | 330° |
| 2026-05-05 17:59 | 53.25964 | -2.48871 | 5899 ft | 311 kts | 0° |
| 2026-05-05 18:00 | 53.28019 | -2.47992 | 5075 ft | 306 kts | 31° |
| 2026-05-05 18:00 | 53.29487 | -2.45519 | 4261 ft | 301 kts | 62° |
| 2026-05-05 18:00 | 53.30090 | -2.42217 | 3474 ft | 296 kts | 79° |
| 2026-05-05 18:00 | 53.30435 | -2.38910 | 3094 ft | 277 kts | 78° |
| 2026-05-05 18:01 | 53.31141 | -2.36151 | 2977 ft | 250 kts | 54° |
| 2026-05-05 18:01 | 53.32174 | -2.34004 | 2981 ft | 229 kts | 49° |
| 2026-05-05 18:01 | 53.33192 | -2.31985 | 2986 ft | 226 kts | 50° |